Time;durP1;ratioP1;P1;durP2;ratioP2;P2;SDS_P1;SDS_P2;PMS_P1;PMS_P2;Temp;Humidity;BMP_temperature;BMP_pressure;BME280_temperature;BME280_humidity;BME280_pressure;Samples;Min_cycle;Max_cycle;Signal;HPM_P1;HPM_P2
2022/10/06 00:00:00;;;;;;;5.10;3.77;;;14.90;99.90;;;;;;5014035;28;20451;-82
2022/10/06 00:02:27;;;;;;;4.33;3.93;;;14.90;99.90;;;;;;5024451;28;20571;-81
2022/10/06 00:04:55;;;;;;;7.67;3.83;;;14.90;99.90;;;;;;5023117;28;20451;-81
2022/10/06 00:07:21;;;;;;;4.37;3.90;;;14.90;99.90;;;;;;5031655;28;20465;-82
2022/10/06 00:09:48;;;;;;;4.13;3.60;;;14.80;99.90;;;;;;5029561;28;20813;-81
2022/10/06 00:12:16;;;;;;;5.33;4.07;;;14.80;99.90;;;;;;5027924;28;20554;-81
2022/10/06 00:14:44;;;;;;;4.80;4.30;;;14.80;99.90;;;;;;5023393;28;20451;-81
2022/10/06 00:17:11;;;;;;;6.03;3.97;;;14.80;99.90;;;;;;5025505;28;20456;-81
2022/10/06 00:19:38;;;;;;;4.20;3.80;;;14.80;99.90;;;;;;5020673;28;20498;-81
2022/10/06 00:22:05;;;;;;;5.23;4.20;;;14.80;99.90;;;;;;5021726;28;20582;-79
2022/10/06 00:24:32;;;;;;;5.57;4.20;;;14.70;99.90;;;;;;5027824;28;20464;-80
2022/10/06 00:26:59;;;;;;;4.33;3.93;;;14.80;99.90;;;;;;5030659;28;21154;-80
2022/10/06 00:29:26;;;;;;;4.80;3.40;;;14.70;99.90;;;;;;5020052;28;20496;-80
2022/10/06 00:31:54;;;;;;;3.97;3.57;;;14.80;99.90;;;;;;5024389;28;20459;-80
2022/10/06 00:34:21;;;;;;;4.10;3.80;;;14.80;99.90;;;;;;5025955;28;20462;-78
2022/10/06 00:36:48;;;;;;;4.27;3.87;;;14.80;99.90;;;;;;5021501;28;20470;-80
2022/10/06 00:39:15;;;;;;;6.03;4.20;;;14.90;99.90;;;;;;5017143;28;20475;-79
2022/10/06 00:41:42;;;;;;;5.00;3.43;;;14.90;99.90;;;;;;5028194;28;20494;-79
2022/10/06 00:44:09;;;;;;;3.70;3.30;;;15.00;99.90;;;;;;5028677;28;20463;-79
2022/10/06 00:46:40;;;;;;;3.83;3.40;;;15.10;99.90;;;;;;5023033;28;20464;-79
2022/10/06 00:49:13;;;;;;;4.77;3.20;;;15.10;99.90;;;;;;5030033;28;20566;-79
2022/10/06 00:51:44;;;;;;;3.50;3.20;;;15.20;99.90;;;;;;5029421;28;20543;-80
2022/10/06 00:54:12;;;;;;;3.83;3.53;;;15.30;99.90;;;;;;5032856;28;20558;-79
2022/10/06 00:56:40;;;;;;;4.40;3.80;;;15.30;99.90;;;;;;5028755;28;20979;-81
2022/10/06 00:59:09;;;;;;;3.80;3.10;;;15.30;99.90;;;;;;5029624;28;20574;-80
2022/10/06 01:01:38;;;;;;;3.03;2.50;;;15.30;99.90;;;;;;5022462;28;20549;-81
2022/10/06 01:04:12;;;;;;;3.40;3.10;;;15.40;99.90;;;;;;5029612;28;21004;-80
2022/10/06 01:06:50;;;;;;;3.13;2.93;;;15.60;99.90;;;;;;5018455;28;20503;-80
2022/10/06 01:09:18;;;;;;;3.70;3.03;;;15.60;99.90;;;;;;5027117;28;20950;-79
2022/10/06 01:11:48;;;;;;;3.00;2.70;;;15.70;99.90;;;;;;5027083;28;20579;-80
2022/10/06 01:14:16;;;;;;;5.60;3.03;;;15.70;99.90;;;;;;5017337;28;20472;-81
2022/10/06 01:16:45;;;;;;;3.60;3.30;;;15.70;99.90;;;;;;5038776;28;20451;-79
2022/10/06 01:19:25;;;;;;;4.73;3.40;;;15.80;99.90;;;;;;5025412;28;20568;-80
2022/10/06 01:21:54;;;;;;;7.00;3.27;;;15.80;99.90;;;;;;5028206;28;20505;-80
2022/10/06 01:24:23;;;;;;;3.53;3.20;;;15.80;99.90;;;;;;5023732;28;20436;-80
2022/10/06 01:26:52;;;;;;;5.60;3.33;;;15.80;99.90;;;;;;5035244;28;20847;-80
2022/10/06 01:29:19;;;;;;;4.00;2.60;;;15.70;99.90;;;;;;5028425;28;20451;-80
2022/10/06 01:31:46;;;;;;;3.30;2.50;;;15.70;99.90;;;;;;5029261;28;20507;-80
2022/10/06 01:34:13;;;;;;;2.70;2.50;;;15.80;99.90;;;;;;5024060;28;20547;-80
2022/10/06 01:36:41;;;;;;;3.13;2.50;;;15.80;99.90;;;;;;5021416;28;20455;-80
2022/10/06 01:39:08;;;;;;;2.67;2.20;;;15.90;99.90;;;;;;5019271;28;20522;-80
2022/10/06 01:41:36;;;;;;;2.40;2.20;;;15.80;99.90;;;;;;5028203;28;20551;-80
2022/10/06 01:44:03;;;;;;;2.83;2.30;;;15.90;99.90;;;;;;5027509;28;20803;-80
2022/10/06 01:46:30;;;;;;;2.80;2.20;;;15.90;99.90;;;;;;5026694;28;20460;-79
2022/10/06 01:48:57;;;;;;;4.93;2.40;;;15.80;99.90;;;;;;5027294;28;20498;-80
2022/10/06 01:51:24;;;;;;;2.67;2.30;;;15.80;99.90;;;;;;5020589;28;20894;-80
2022/10/06 01:53:51;;;;;;;4.10;2.53;;;15.80;99.90;;;;;;5024079;28;20479;-80
2022/10/06 01:56:19;;;;;;;4.13;2.73;;;15.80;99.90;;;;;;5028390;28;20487;-80
2022/10/06 01:58:48;;;;;;;2.10;2.00;;;15.80;99.90;;;;;;5031780;28;20481;-80
2022/10/06 02:01:15;;;;;;;3.10;2.60;;;15.80;99.90;;;;;;5023897;28;20889;-80
2022/10/06 02:03:42;;;;;;;2.90;2.33;;;15.80;99.90;;;;;;5015631;28;20584;-80
2022/10/06 02:06:10;;;;;;;2.90;2.57;;;15.90;99.90;;;;;;5023617;28;20463;-80
2022/10/06 02:08:37;;;;;;;4.07;2.80;;;15.80;99.90;;;;;;5029548;28;20563;-80
2022/10/06 02:11:07;;;;;;;4.07;2.50;;;15.70;99.90;;;;;;5028908;28;21031;-80
2022/10/06 02:13:35;;;;;;;3.47;2.87;;;15.60;99.90;;;;;;5030204;28;20461;-79
2022/10/06 02:16:05;;;;;;;4.33;2.80;;;15.30;99.90;;;;;;5025553;28;20457;-79
2022/10/06 02:18:32;;;;;;;3.10;2.90;;;15.10;99.90;;;;;;5014300;28;20477;-79
2022/10/06 02:20:59;;;;;;;3.43;3.13;;;14.80;99.90;;;;;;5026477;28;20821;-79
2022/10/06 02:23:26;;;;;;;4.10;2.80;;;14.60;99.90;;;;;;5032805;28;20526;-80
2022/10/06 02:25:58;;;;;;;3.00;2.70;;;14.40;99.90;;;;;;5030979;28;20466;-79
2022/10/06 02:28:25;;;;;;;3.20;2.90;;;14.40;99.90;;;;;;5028349;28;20515;-79
2022/10/06 02:30:54;;;;;;;3.70;2.67;;;14.40;99.90;;;;;;5036146;28;20813;-79
2022/10/06 02:33:22;;;;;;;4.73;2.87;;;14.50;99.90;;;;;;5027519;28;20446;-79
2022/10/06 02:35:54;;;;;;;3.30;3.03;;;14.50;99.90;;;;;;5033094;28;20487;-79
2022/10/06 02:38:22;;;;;;;5.13;3.20;;;14.60;99.90;;;;;;5026673;28;20561;-79
2022/10/06 02:40:49;;;;;;;3.47;3.10;;;14.70;99.90;;;;;;5017407;28;20462;-80
2022/10/06 02:43:16;;;;;;;5.23;2.93;;;14.80;99.90;;;;;;5021725;28;21261;-78
2022/10/06 02:45:44;;;;;;;2.90;2.60;;;14.80;99.90;;;;;;5028100;28;20455;-79
2022/10/06 02:48:10;;;;;;;2.77;2.47;;;14.90;99.90;;;;;;5030976;28;20558;-79
2022/10/06 02:50:39;;;;;;;3.40;2.83;;;14.90;99.90;;;;;;5021763;28;20459;-79
2022/10/06 02:53:07;;;;;;;4.13;2.93;;;15.00;99.90;;;;;;5026217;28;20545;-80
2022/10/06 02:55:35;;;;;;;4.77;2.73;;;15.00;99.90;;;;;;5019903;28;20455;-79
2022/10/06 02:58:02;;;;;;;6.13;3.50;;;14.90;99.90;;;;;;5033281;28;20525;-78
2022/10/06 03:00:29;;;;;;;5.00;3.00;;;15.00;99.90;;;;;;5034457;28;20463;-78
2022/10/06 03:02:56;;;;;;;3.93;3.17;;;15.00;99.90;;;;;;5033577;28;20480;-78
2022/10/06 03:05:23;;;;;;;2.90;2.70;;;15.00;99.90;;;;;;5032831;28;20890;-78
2022/10/06 03:07:51;;;;;;;2.93;2.73;;;15.00;99.90;;;;;;5043721;28;20564;-79
2022/10/06 03:10:18;;;;;;;3.07;2.73;;;15.10;99.90;;;;;;5023081;28;20818;-79
2022/10/06 03:12:45;;;;;;;3.30;3.00;;;15.00;99.90;;;;;;5032758;28;20555;-78
2022/10/06 03:15:12;;;;;;;3.00;2.80;;;15.00;99.90;;;;;;5023959;28;20452;-78
2022/10/06 03:17:39;;;;;;;3.73;3.13;;;15.00;99.90;;;;;;5027977;28;20479;-79
2022/10/06 03:20:07;;;;;;;3.17;2.40;;;15.00;99.90;;;;;;5029570;28;20950;-79
2022/10/06 03:22:35;;;;;;;6.03;2.80;;;15.00;99.90;;;;;;5038005;28;20870;-79
2022/10/06 03:25:03;;;;;;;4.47;2.70;;;15.10;99.90;;;;;;5027652;28;20459;-79
2022/10/06 03:27:30;;;;;;;2.70;2.50;;;15.20;99.90;;;;;;5023088;28;20877;-80
2022/10/06 03:29:57;;;;;;;4.27;2.90;;;15.40;99.90;;;;;;5028315;28;20972;-80
2022/10/06 03:32:24;;;;;;;4.40;2.77;;;15.50;99.90;;;;;;5026581;28;20540;-80
2022/10/06 03:34:52;;;;;;;3.53;2.40;;;15.60;99.90;;;;;;5031741;28;20452;-80
2022/10/06 03:37:20;;;;;;;4.33;3.10;;;15.70;99.90;;;;;;5018060;28;20473;-79
2022/10/06 03:39:47;;;;;;;3.33;2.80;;;15.80;99.90;;;;;;5027835;28;20543;-80
2022/10/06 03:42:15;;;;;;;3.40;2.70;;;15.90;99.90;;;;;;5029663;28;20555;-80
2022/10/06 03:44:42;;;;;;;4.23;2.93;;;15.90;99.90;;;;;;5028632;28;20963;-82
2022/10/06 03:47:09;;;;;;;3.43;2.60;;;16.00;99.90;;;;;;5020353;28;20567;-82
2022/10/06 03:49:37;;;;;;;3.00;2.63;;;16.00;99.90;;;;;;5016142;28;20545;-82
2022/10/06 03:52:04;;;;;;;4.23;2.50;;;16.00;99.90;;;;;;5026067;28;20493;-81
2022/10/06 03:54:31;;;;;;;4.17;2.50;;;16.00;99.90;;;;;;5016911;28;20460;-80
2022/10/06 03:56:58;;;;;;;4.03;3.17;;;16.10;99.90;;;;;;5030506;28;21230;-81
2022/10/06 03:59:30;;;;;;;4.27;3.00;;;16.10;99.90;;;;;;5022250;28;20540;-81
2022/10/06 04:01:57;;;;;;;3.47;2.73;;;16.10;99.90;;;;;;5023114;28;20457;-84
2022/10/06 04:04:24;;;;;;;4.90;3.10;;;16.10;99.90;;;;;;5020708;28;20487;-81
2022/10/06 04:06:51;;;;;;;3.40;3.10;;;16.20;99.90;;;;;;5028687;28;20490;-79
2022/10/06 04:09:18;;;;;;;4.30;3.13;;;16.10;99.90;;;;;;5025875;28;20467;-80
2022/10/06 04:11:45;;;;;;;3.40;3.07;;;16.20;99.90;;;;;;5030978;28;20456;-80
2022/10/06 04:14:14;;;;;;;3.70;3.27;;;16.10;99.90;;;;;;5032497;28;20535;-83
2022/10/06 04:16:44;;;;;;;3.70;3.30;;;16.00;99.90;;;;;;5025288;28;20484;-81
2022/10/06 04:19:13;;;;;;;3.67;3.13;;;16.00;99.90;;;;;;5023794;28;20910;-83
2022/10/06 04:21:42;;;;;;;5.50;3.93;;;16.00;99.90;;;;;;5021727;28;21137;-79
2022/10/06 04:24:10;;;;;;;4.57;3.43;;;16.00;99.90;;;;;;5014161;28;20520;-79
2022/10/06 04:26:39;;;;;;;4.87;3.70;;;15.90;99.90;;;;;;5025740;28;20464;-76
2022/10/06 04:29:07;;;;;;;6.20;3.80;;;15.90;99.90;;;;;;5024734;28;20489;-76
2022/10/06 04:31:37;;;;;;;4.50;3.70;;;15.90;99.90;;;;;;5014551;28;20903;-76
2022/10/06 04:34:06;;;;;;;4.13;3.43;;;16.00;99.90;;;;;;5013355;28;20455;-77
2022/10/06 04:36:37;;;;;;;5.83;3.90;;;16.00;99.90;;;;;;5035593;28;21125;-76
2022/10/06 04:39:05;;;;;;;5.00;3.50;;;16.00;99.90;;;;;;5028972;28;20487;-77
2022/10/06 04:41:34;;;;;;;4.63;3.53;;;16.00;99.90;;;;;;5019398;28;20460;-77
2022/10/06 04:44:02;;;;;;;6.00;3.50;;;16.00;99.90;;;;;;5022058;28;20492;-79
2022/10/06 04:46:31;;;;;;;4.17;3.63;;;16.00;99.90;;;;;;5027599;28;20559;-79
2022/10/06 04:48:58;;;;;;;4.40;4.00;;;16.00;99.90;;;;;;5026625;28;20459;-79
2022/10/06 04:51:28;;;;;;;5.90;3.77;;;16.00;99.90;;;;;;5026833;28;20486;-79
2022/10/06 04:53:55;;;;;;;5.63;4.13;;;16.00;99.90;;;;;;5027445;28;20467;-79
2022/10/06 04:56:24;;;;;;;5.10;3.80;;;16.00;99.90;;;;;;5027455;28;20480;-79
2022/10/06 04:58:53;;;;;;;5.57;3.80;;;16.00;99.90;;;;;;5033046;28;20551;-79
2022/10/06 05:01:22;;;;;;;5.70;4.30;;;16.00;99.90;;;;;;5032374;28;20927;-79
2022/10/06 05:03:51;;;;;;;4.80;3.97;;;16.10;99.90;;;;;;5016029;28;20573;-86
2022/10/06 05:06:20;;;;;;;5.07;4.07;;;16.10;99.90;;;;;;5023089;28;20508;-80
2022/10/06 05:08:49;;;;;;;5.80;3.60;;;16.10;99.90;;;;;;5025664;28;20463;-80
2022/10/06 05:11:16;;;;;;;6.10;4.10;;;16.10;99.90;;;;;;5027009;28;20456;-79
2022/10/06 05:13:44;;;;;;;5.60;3.97;;;16.10;99.90;;;;;;5021209;28;20548;-79
2022/10/06 05:16:13;;;;;;;4.20;3.60;;;16.10;99.90;;;;;;5028810;28;20531;-79
2022/10/06 05:18:40;;;;;;;5.10;4.30;;;16.10;99.90;;;;;;5031787;28;20488;-80
2022/10/06 05:21:10;;;;;;;4.33;3.87;;;16.10;99.90;;;;;;5030138;28;21952;-80
2022/10/06 05:23:40;;;;;;;4.43;3.80;;;16.10;99.90;;;;;;5030819;28;20492;-79
2022/10/06 05:26:10;;;;;;;5.33;4.60;;;16.10;99.90;;;;;;5020089;28;20491;-80
2022/10/06 05:28:37;;;;;;;5.10;4.30;;;16.20;99.90;;;;;;5030645;28;20448;-80
2022/10/06 05:31:06;;;;;;;4.43;3.93;;;16.20;99.90;;;;;;5036373;28;20493;-80
2022/10/06 05:33:35;;;;;;;5.47;3.90;;;16.10;99.90;;;;;;5035752;28;20466;-80
2022/10/06 05:36:05;;;;;;;5.13;4.30;;;16.10;99.90;;;;;;5020266;28;20535;-79
2022/10/06 05:38:33;;;;;;;4.87;3.83;;;16.10;99.90;;;;;;5027754;28;20456;-79
2022/10/06 05:41:01;;;;;;;8.27;4.00;;;16.10;99.90;;;;;;5033048;28;20543;-79
2022/10/06 05:43:30;;;;;;;9.30;4.00;;;16.10;99.90;;;;;;5033456;28;20475;-80
2022/10/06 05:45:59;;;;;;;4.83;3.67;;;16.10;99.90;;;;;;5026819;28;20460;-79
2022/10/06 05:48:27;;;;;;;4.07;3.67;;;16.20;99.90;;;;;;5020907;28;20515;-79
2022/10/06 05:51:01;;;;;;;5.50;3.93;;;16.20;99.90;;;;;;5026166;28;20471;-80
2022/10/06 05:53:29;;;;;;;4.60;3.93;;;16.20;99.90;;;;;;5031761;28;20505;-80
2022/10/06 05:56:05;;;;;;;5.20;4.07;;;16.20;99.90;;;;;;5032326;28;20448;-79
2022/10/06 05:58:34;;;;;;;7.47;3.70;;;16.20;99.90;;;;;;5031927;28;20465;-81
2022/10/06 06:01:13;;;;;;;6.63;4.43;;;16.20;99.90;;;;;;5029556;28;20464;-80
2022/10/06 06:03:41;;;;;;;3.73;3.43;;;16.30;99.90;;;;;;5028454;28;20499;-81
2022/10/06 06:06:16;;;;;;;4.20;3.80;;;16.30;99.90;;;;;;5032767;28;20509;-81
2022/10/06 06:08:44;;;;;;;4.50;3.83;;;16.30;99.90;;;;;;5023598;28;20451;-81
2022/10/06 06:11:11;;;;;;;6.27;4.20;;;16.30;99.90;;;;;;5033004;28;20538;-81
2022/10/06 06:13:39;;;;;;;4.90;4.40;;;16.40;99.90;;;;;;5037553;28;20954;-80
2022/10/06 06:16:06;;;;;;;4.93;4.03;;;16.30;99.90;;;;;;5017703;28;20476;-81
2022/10/06 06:18:36;;;;;;;6.47;3.90;;;16.30;99.90;;;;;;5040442;28;20509;-81
2022/10/06 06:21:05;;;;;;;5.50;4.03;;;16.20;99.90;;;;;;5025941;28;20540;-80
2022/10/06 06:23:34;;;;;;;5.50;4.57;;;16.20;99.90;;;;;;5026202;28;20483;-81
2022/10/06 06:26:05;;;;;;;5.73;3.73;;;16.20;99.90;;;;;;5033910;28;20835;-80
2022/10/06 06:28:34;;;;;;;6.10;4.10;;;16.20;99.90;;;;;;5034369;28;20471;-81
2022/10/06 06:31:05;;;;;;;4.50;4.10;;;16.20;99.90;;;;;;5034222;28;20549;-81
2022/10/06 06:33:33;;;;;;;3.80;3.50;;;16.20;99.90;;;;;;5039922;28;22002;-81
2022/10/06 06:36:01;;;;;;;4.50;3.83;;;16.20;99.90;;;;;;5030566;28;20484;-80
2022/10/06 06:38:29;;;;;;;4.40;3.80;;;16.20;99.90;;;;;;5018391;28;20461;-81
2022/10/06 06:40:56;;;;;;;4.43;3.63;;;16.20;99.90;;;;;;5029955;28;20444;-80
2022/10/06 06:43:23;;;;;;;4.37;4.00;;;16.30;99.90;;;;;;5026673;28;20453;-81
2022/10/06 06:45:50;;;;;;;4.87;3.70;;;16.30;99.90;;;;;;5031471;28;21005;-81
2022/10/06 06:48:19;;;;;;;5.90;4.10;;;16.40;99.90;;;;;;5024699;28;20943;-81
2022/10/06 06:50:54;;;;;;;5.30;4.13;;;16.40;99.90;;;;;;5023994;28;20474;-81
2022/10/06 06:53:21;;;;;;;4.47;3.80;;;16.20;99.90;;;;;;5026359;28;20467;-82
2022/10/06 06:55:49;;;;;;;4.83;4.33;;;16.50;99.90;;;;;;5022938;28;21012;-81
2022/10/06 06:58:17;;;;;;;5.00;4.00;;;16.60;99.90;;;;;;5023759;28;20496;-81
2022/10/06 07:00:44;;;;;;;6.00;4.17;;;16.60;99.90;;;;;;5029054;28;20906;-81
2022/10/06 07:03:13;;;;;;;6.23;4.33;;;16.70;99.90;;;;;;5022406;28;20453;-81
2022/10/06 07:05:43;;;;;;;4.27;3.87;;;16.70;99.90;;;;;;5018873;28;20492;-81
2022/10/06 07:08:12;;;;;;;4.40;4.00;;;16.70;99.90;;;;;;5022360;28;20460;-81
2022/10/06 07:10:39;;;;;;;5.43;4.10;;;16.70;99.90;;;;;;5029789;28;20480;-81
2022/10/06 07:13:06;;;;;;;4.90;4.00;;;16.80;99.90;;;;;;5025326;28;20467;-81
2022/10/06 07:26:35;;;;;;;6.17;3.80;;;16.50;99.90;;;;;;5022502;28;20528;-80
2022/10/06 07:29:02;;;;;;;7.63;3.70;;;16.40;99.90;;;;;;5019528;28;20485;-80
2022/10/06 07:31:32;;;;;;;3.80;3.50;;;16.40;99.90;;;;;;5028557;28;20486;-80
2022/10/06 07:33:59;;;;;;;6.17;3.77;;;16.30;99.90;;;;;;5031220;28;20463;-80
2022/10/06 07:36:28;;;;;;;4.70;3.30;;;16.30;99.90;;;;;;5026173;28;20460;-80
2022/10/06 07:38:55;;;;;;;5.60;3.73;;;16.30;99.90;;;;;;5029281;28;20456;-80
2022/10/06 07:41:23;;;;;;;7.67;3.60;;;16.30;99.90;;;;;;5025346;28;20539;-80
2022/10/06 07:43:52;;;;;;;4.67;3.13;;;16.30;99.90;;;;;;5027133;28;20973;-80
2022/10/06 07:46:19;;;;;;;4.70;3.00;;;16.30;99.90;;;;;;5022138;28;20475;-80
2022/10/06 07:48:48;;;;;;;5.37;2.93;;;16.40;99.90;;;;;;5025322;28;20543;-80
2022/10/06 07:51:17;;;;;;;3.90;3.30;;;16.40;99.90;;;;;;5026525;28;20958;-80
2022/10/06 07:53:49;;;;;;;5.37;2.97;;;16.40;99.90;;;;;;5027390;28;20492;-80
2022/10/06 07:56:19;;;;;;;5.03;3.07;;;16.40;99.90;;;;;;5023329;28;20871;-79
2022/10/06 07:58:47;;;;;;;6.43;2.80;;;16.40;99.90;;;;;;5022873;28;20831;-81
2022/10/06 08:01:16;;;;;;;4.53;2.90;;;16.40;99.90;;;;;;5026391;28;20460;-80
2022/10/06 08:03:47;;;;;;;4.57;3.07;;;16.50;99.90;;;;;;5031846;28;20468;-80
2022/10/06 08:06:16;;;;;;;3.10;2.63;;;16.50;99.90;;;;;;5030421;28;21050;-80
2022/10/06 08:08:45;;;;;;;4.60;2.77;;;16.60;99.90;;;;;;5025060;28;20800;-80
2022/10/06 08:11:14;;;;;;;3.30;2.53;;;16.60;99.90;;;;;;5027079;28;20497;-80
2022/10/06 08:13:43;;;;;;;2.80;2.27;;;16.70;99.90;;;;;;5024719;28;20468;-80
2022/10/06 08:16:12;;;;;;;4.47;2.90;;;16.70;99.90;;;;;;5029446;28;21010;-80
2022/10/06 08:18:39;;;;;;;5.20;2.67;;;16.70;99.90;;;;;;5025210;28;20456;-81
2022/10/06 08:21:12;;;;;;;3.63;2.43;;;16.70;99.90;;;;;;5022774;28;20463;-77
2022/10/06 08:23:41;;;;;;;3.03;2.50;;;16.80;99.90;;;;;;5025978;28;20465;-86
2022/10/06 08:26:11;;;;;;;4.63;3.17;;;16.80;99.90;;;;;;5019623;28;20990;-83
2022/10/06 08:28:39;;;;;;;5.07;3.90;;;16.80;99.90;;;;;;5027313;28;20459;-79
2022/10/06 08:31:10;;;;;;;3.20;2.50;;;16.80;99.90;;;;;;5025292;28;20465;-79
2022/10/06 08:33:37;;;;;;;3.43;2.43;;;16.80;99.90;;;;;;5019972;28;20540;-83
2022/10/06 08:36:07;;;;;;;3.53;2.70;;;16.90;99.90;;;;;;5024872;28;20468;-79
2022/10/06 08:38:35;;;;;;;4.50;2.30;;;16.90;99.90;;;;;;5022474;28;20463;-79
2022/10/06 08:41:02;;;;;;;3.40;2.43;;;16.80;99.90;;;;;;5014503;28;20504;-78
2022/10/06 08:43:32;;;;;;;6.40;2.70;;;16.90;99.90;;;;;;5012306;28;20449;-79
2022/10/06 08:46:03;;;;;;;4.27;3.00;;;16.90;99.90;;;;;;5014050;28;21002;-79
2022/10/06 08:48:37;;;;;;;4.33;2.27;;;16.90;99.90;;;;;;5016735;28;20507;-79
2022/10/06 08:51:18;;;;;;;3.13;2.50;;;16.80;99.90;;;;;;5031938;28;20451;-79
2022/10/06 08:53:54;;;;;;;4.23;2.30;;;16.80;99.90;;;;;;5026756;28;20460;-79
2022/10/06 08:56:26;;;;;;;5.30;2.40;;;16.80;99.90;;;;;;5023984;28;20480;-79
2022/10/06 08:58:57;;;;;;;3.80;2.10;;;16.80;99.90;;;;;;5024061;28;20444;-79
2022/10/06 09:01:26;;;;;;;4.40;2.67;;;16.90;99.90;;;;;;5020199;28;20461;-79
2022/10/06 09:04:00;;;;;;;3.17;2.30;;;17.00;99.90;;;;;;5012139;28;20453;-78
2022/10/06 09:06:41;;;;;;;3.10;2.30;;;17.00;99.90;;;;;;5031175;28;20606;-78
2022/10/06 09:09:18;;;;;;;2.23;1.50;;;17.00;99.90;;;;;;5026467;28;21027;-79
2022/10/06 09:11:59;;;;;;;2.93;1.80;;;17.10;99.90;;;;;;5026751;28;20456;-79
2022/10/06 09:14:35;;;;;;;2.43;1.60;;;17.10;99.90;;;;;;5021747;28;20448;-79
2022/10/06 09:17:07;;;;;;;3.60;1.67;;;17.20;99.90;;;;;;5036265;28;20494;-79
2022/10/06 09:19:42;;;;;;;3.43;1.90;;;17.30;99.90;;;;;;5013690;28;20941;-79
2022/10/06 09:22:16;;;;;;;4.53;2.37;;;17.40;99.90;;;;;;5015835;28;20531;-79
2022/10/06 09:24:48;;;;;;;2.33;2.00;;;17.50;99.90;;;;;;5021075;28;20554;-79
2022/10/06 09:27:19;;;;;;;2.93;2.00;;;17.60;99.90;;;;;;5024255;28;20479;-79
2022/10/06 09:29:48;;;;;;;4.33;1.80;;;17.60;99.90;;;;;;5031667;28;20444;-79
2022/10/06 09:32:16;;;;;;;3.47;1.87;;;17.60;99.90;;;;;;5016104;28;20457;-79
2022/10/06 09:34:48;;;;;;;2.70;1.93;;;17.70;99.90;;;;;;5028164;28;20584;-79
2022/10/06 09:37:15;;;;;;;2.53;1.90;;;17.80;99.90;;;;;;5022971;28;21099;-79
2022/10/06 09:39:44;;;;;;;2.37;1.77;;;17.80;99.90;;;;;;5030390;28;20443;-78
2022/10/06 09:42:18;;;;;;;4.10;1.97;;;17.80;99.90;;;;;;5024483;28;20448;-79
2022/10/06 09:45:00;;;;;;;4.33;1.80;;;17.90;99.90;;;;;;5030191;28;20518;-79
2022/10/06 09:47:40;;;;;;;2.27;1.73;;;18.10;99.90;;;;;;5030422;28;20518;-79
2022/10/06 09:50:20;;;;;;;3.37;1.90;;;18.30;99.90;;;;;;5029811;28;20548;-78
2022/10/06 09:53:15;;;;;;;2.53;1.50;;;18.40;99.90;;;;;;5022506;28;20479;-79
2022/10/06 09:55:50;;;;;;;3.70;2.00;;;18.50;99.90;;;;;;5030246;28;20949;-79
2022/10/06 09:58:25;;;;;;;4.07;1.50;;;18.80;99.90;;;;;;5032009;28;20502;-79
2022/10/06 10:00:56;;;;;;;2.87;1.70;;;19.10;99.90;;;;;;5026307;28;20494;-78
2022/10/06 10:03:25;;;;;;;2.47;1.67;;;19.20;99.90;;;;;;5021438;28;20812;-79
2022/10/06 10:05:54;;;;;;;3.43;1.47;;;19.20;99.90;;;;;;5012568;28;20972;-79
2022/10/06 10:08:23;;;;;;;4.07;1.50;;;19.10;99.90;;;;;;5027524;28;20540;-79
2022/10/06 10:12:23;;;;;;;3.33;1.50;;;19.10;99.90;;;;;;5014105;28;20515;-79
2022/10/06 10:13:58;;;;;;;2.80;1.77;;;19.10;99.90;;;;;;5028787;28;20449;-79
2022/10/06 10:16:29;;;;;;;2.70;1.50;;;19.20;99.90;;;;;;5028402;28;20483;-79
2022/10/06 10:18:57;;;;;;;3.47;1.93;;;19.20;99.90;;;;;;5021543;28;20484;-79
2022/10/06 10:21:28;;;;;;;2.30;1.77;;;19.30;99.90;;;;;;5028508;28;20580;-78
2022/10/06 10:23:57;;;;;;;4.10;1.80;;;19.60;99.90;;;;;;5022107;28;20952;-79
2022/10/06 10:26:36;;;;;;;2.80;1.60;;;19.90;99.90;;;;;;5025906;28;20492;-79
2022/10/06 10:29:29;;;;;;;2.13;1.63;;;20.20;99.90;;;;;;5013636;28;20450;-79
2022/10/06 10:32:07;;;;;;;4.00;1.70;;;20.20;99.90;;;;;;5021064;28;20464;-79
2022/10/06 10:35:02;;;;;;;2.70;1.77;;;20.40;99.90;;;;;;5022627;28;20485;-79
2022/10/06 10:37:38;;;;;;;2.00;1.50;;;20.90;99.90;;;;;;5011085;28;21015;-80
2022/10/06 10:40:14;;;;;;;2.50;1.40;;;21.80;99.90;;;;;;5033792;28;20456;-80
2022/10/06 10:42:47;;;;;;;2.40;1.57;;;22.60;99.90;;;;;;5024324;28;20486;-80
2022/10/06 10:45:18;;;;;;;2.50;1.50;;;23.40;99.90;;;;;;5033238;28;20494;-80
2022/10/06 10:47:48;;;;;;;2.33;1.30;;;23.70;99.90;;;;;;5032069;28;20453;-80
2022/10/06 10:50:25;;;;;;;3.53;1.60;;;24.40;99.90;;;;;;5020897;28;20455;-80
2022/10/06 10:52:55;;;;;;;2.70;1.40;;;24.70;99.90;;;;;;5027433;28;20547;-80
2022/10/06 10:55:27;;;;;;;2.93;1.47;;;24.80;99.90;;;;;;5034041;28;20471;-80
2022/10/06 10:57:58;;;;;;;3.60;1.53;;;24.70;99.90;;;;;;5018058;28;20485;-80
2022/10/06 11:00:28;;;;;;;2.50;1.50;;;24.70;99.90;;;;;;5021691;28;20544;-80
2022/10/06 11:02:58;;;;;;;3.33;1.70;;;24.80;99.90;;;;;;5029006;28;20513;-79
2022/10/06 11:05:44;;;;;;;2.73;1.50;;;24.40;99.90;;;;;;5033163;28;20490;-79
2022/10/06 11:08:15;;;;;;;4.30;1.90;;;23.80;99.90;;;;;;5037295;28;20970;-80
2022/10/06 11:10:49;;;;;;;4.37;2.10;;;23.50;99.90;;;;;;5016158;28;20458;-81
2022/10/06 11:13:24;;;;;;;3.33;2.00;;;23.50;99.90;;;;;;5026083;28;21052;-80
2022/10/06 11:16:04;;;;;;;2.10;1.50;;;23.70;99.90;;;;;;5013859;28;20471;-80
2022/10/06 11:18:44;;;;;;;3.20;1.40;;;23.90;99.90;;;;;;5025963;28;20452;-80
2022/10/06 11:21:16;;;;;;;2.57;1.27;;;24.00;99.90;;;;;;5034886;28;20547;-80
2022/10/06 11:23:52;;;;;;;2.97;1.60;;;24.20;99.90;;;;;;5014360;28;20473;-80
2022/10/06 11:26:39;;;;;;;1.80;1.60;;;24.20;99.90;;;;;;5029322;28;20491;-80
2022/10/06 11:29:18;;;;;;;2.47;1.70;;;24.50;99.90;;;;;;5026055;28;21001;-80
2022/10/06 11:31:51;;;;;;;3.17;1.70;;;24.70;99.90;;;;;;5029731;28;20484;-80
2022/10/06 11:34:19;;;;;;;4.10;1.70;;;25.00;99.90;;;;;;5033300;28;20627;-79
2022/10/06 11:36:53;;;;;;;2.87;1.40;;;25.20;99.90;;;;;;5022064;28;20467;-80
2022/10/06 11:39:25;;;;;;;3.50;1.93;;;25.30;99.90;;;;;;5037926;28;20463;-80
2022/10/06 11:41:58;;;;;;;3.50;1.50;;;25.30;99.90;;;;;;5032525;28;20444;-80
2022/10/06 11:44:32;;;;;;;4.03;1.90;;;25.20;99.90;;;;;;5031826;28;20518;-80
2022/10/06 11:47:05;;;;;;;2.70;1.50;;;25.10;99.90;;;;;;5022534;28;20570;-80
2022/10/06 11:50:00;;;;;;;2.93;1.50;;;25.10;99.90;;;;;;5033284;28;20465;-80
2022/10/06 11:52:54;;;;;;;2.80;1.63;;;25.40;99.90;;;;;;5023935;28;20468;-80
2022/10/06 11:55:25;;;;;;;3.43;1.43;;;26.00;99.90;;;;;;5024579;28;20521;-79
2022/10/06 11:58:12;;;;;;;3.10;1.53;;;26.70;99.30;;;;;;5021842;28;20453;-79
2022/10/06 12:00:45;;;;;;;2.17;1.50;;;27.20;97.90;;;;;;5032281;28;20460;-78
2022/10/06 12:03:48;;;;;;;2.90;1.40;;;27.20;97.50;;;;;;5026740;28;20512;-78
2022/10/06 12:06:55;;;;;;;4.77;2.00;;;26.90;97.10;;;;;;5023187;28;20579;-78
2022/10/06 12:09:37;;;;;;;4.20;2.03;;;26.50;97.60;;;;;;5026168;28;20448;-79
2022/10/06 12:12:56;;;;;;;3.50;1.63;;;25.90;97.90;;;;;;5026454;28;20452;-78
2022/10/06 12:15:53;;;;;;;3.67;2.00;;;25.20;98.40;;;;;;5021561;28;20457;-78
2022/10/06 12:18:56;;;;;;;4.70;1.77;;;24.60;99.80;;;;;;5020584;28;20436;-78
2022/10/06 12:21:42;;;;;;;3.33;1.80;;;24.10;99.70;;;;;;5003395;28;20954;-77
2022/10/06 12:24:24;;;;;;;3.10;1.57;;;23.50;99.90;;;;;;5025804;28;20452;-78
2022/10/06 12:26:58;;;;;;;3.10;1.63;;;23.10;99.90;;;;;;5020150;28;20491;-78
2022/10/06 12:29:36;;;;;;;3.03;1.90;;;22.70;99.90;;;;;;5027510;28;20456;-78
2022/10/06 12:32:15;;;;;;;2.50;1.53;;;22.40;99.90;;;;;;5027989;28;20492;-78
2022/10/06 12:34:56;;;;;;;6.83;2.00;;;22.10;99.90;;;;;;5026756;28;20556;-77
2022/10/06 12:37:44;;;;;;;2.70;1.60;;;21.90;99.90;;;;;;5030273;28;20463;-79
2022/10/06 12:40:54;;;;;;;3.00;1.40;;;21.70;99.90;;;;;;5026812;28;20540;-77
2022/10/06 12:43:32;;;;;;;5.10;1.70;;;21.50;99.90;;;;;;5005733;28;20471;-77
2022/10/06 12:46:03;;;;;;;2.70;1.67;;;21.50;99.90;;;;;;5021988;28;20496;-78
2022/10/06 12:48:37;;;;;;;4.97;1.90;;;21.50;99.90;;;;;;5019903;28;20457;-78
2022/10/06 12:51:17;;;;;;;7.13;1.80;;;21.50;99.90;;;;;;5018120;28;20484;-78
2022/10/06 12:53:51;;;;;;;3.73;2.00;;;21.60;99.90;;;;;;5024303;28;20511;-77
2022/10/06 12:56:27;;;;;;;3.50;1.60;;;21.60;99.90;;;;;;5028097;28;20479;-78
2022/10/06 12:58:55;;;;;;;3.70;1.50;;;21.60;99.90;;;;;;5012930;28;20981;-77
2022/10/06 13:01:23;;;;;;;4.20;1.70;;;21.60;99.90;;;;;;5020433;28;20488;-78
2022/10/06 13:03:53;;;;;;;2.63;1.40;;;21.50;99.90;;;;;;5026329;28;20462;-78
2022/10/06 13:06:22;;;;;;;2.90;1.37;;;21.50;99.90;;;;;;5032318;28;20480;-77
2022/10/06 13:09:05;;;;;;;3.07;1.70;;;21.50;99.90;;;;;;5035264;28;20452;-78
2022/10/06 13:11:32;;;;;;;2.70;1.70;;;21.50;99.90;;;;;;5032669;28;20456;-77
2022/10/06 13:14:12;;;;;;;4.77;1.70;;;21.50;99.90;;;;;;5019806;28;21014;-78
2022/10/06 13:16:41;;;;;;;3.23;1.77;;;21.60;99.90;;;;;;5017888;28;20462;-77
2022/10/06 13:19:16;;;;;;;3.90;1.60;;;21.70;99.90;;;;;;5018688;28;20522;-77